MAU15 LFPG-FIMP
Flight info
| Callsign | MAU15 |
|---|---|
| Flight time | N/A |
| Altitude | 35000 |
| Route | ERIXU DCT ETAMO DCT ADEKA DCT MOKDI DCT MEN DCT BADAM DCT KANIG DCT KENAS DCT POS DCT LULAK DCT MJV N859 MOGIL UB31 ZEM/N0486F360 UM989 BSA/N0484F350 UR985 RIMEL UA605 TARAT/N0490F370 UA605 DJA UB730 DIR UM731 FL UT325 POGBA/N0489F380 UT325 SIPKI/N0486F390 UW325 NN UA401 DV UG661 ANDIL/N0481F410 UG661 ANVOR DCT TIBAG TIBAG2E |
| Aircraft | A359/M-SDE2E3GHIJ1J3J4J5LM1ORWXY/LB1D1 |
Departure
| Time | 2026-05-01 15:01 |
|---|---|
| Airport | Charles de Gaulle International Airport (LFPG) |
Arrival
| Time | N/A |
|---|---|
| Airport | Sir Seewoosagur Ramgoolam International Airport (FIMP) |
| Time | Latitude | Longitude | Altitude | Speed | Heading |
|---|---|---|---|---|---|
| 2026-05-01 14:38 | 49.00285 | 2.58620 | 333 ft | 0 kts | 265° |
| 2026-05-01 14:45 | 49.00287 | 2.58650 | 333 ft | 2 kts | 265° |
| 2026-05-01 14:45 | 49.00288 | 2.58673 | 333 ft | 2 kts | 265° |
| 2026-05-01 14:46 | 49.00289 | 2.58693 | 333 ft | 0 kts | 265° |
| 2026-05-01 14:46 | 49.00297 | 2.58729 | 333 ft | 2 kts | 225° |
| 2026-05-01 14:46 | 49.00309 | 2.58742 | 333 ft | 2 kts | 201° |
| 2026-05-01 14:47 | 49.00323 | 2.58747 | 334 ft | 1 kts | 179° |
| 2026-05-01 14:47 | 49.00329 | 2.58746 | 334 ft | 1 kts | 175° |
| 2026-05-01 14:47 | 49.00330 | 2.58746 | 334 ft | 0 kts | 175° |
| 2026-05-01 14:50 | 49.00329 | 2.58746 | 334 ft | 0 kts | 175° |
| 2026-05-01 14:50 | 49.00252 | 2.58757 | 332 ft | 8 kts | 175° |
| 2026-05-01 14:51 | 49.00185 | 2.58764 | 331 ft | 10 kts | 177° |
| 2026-05-01 14:51 | 49.00044 | 2.58710 | 331 ft | 10 kts | 257° |
| 2026-05-01 14:52 | 49.00035 | 2.58574 | 331 ft | 10 kts | 258° |
| 2026-05-01 14:52 | 49.00018 | 2.58426 | 331 ft | 15 kts | 263° |
| 2026-05-01 14:52 | 48.99999 | 2.58076 | 331 ft | 18 kts | 265° |
| 2026-05-01 14:53 | 48.99988 | 2.57875 | 331 ft | 19 kts | 265° |
| 2026-05-01 14:53 | 48.99977 | 2.57677 | 333 ft | 18 kts | 265° |
| 2026-05-01 14:53 | 48.99967 | 2.57482 | 333 ft | 18 kts | 266° |
| 2026-05-01 14:53 | 48.99957 | 2.57281 | 333 ft | 19 kts | 266° |
| 2026-05-01 14:54 | 48.99947 | 2.57075 | 333 ft | 20 kts | 264° |
| 2026-05-01 14:54 | 48.99933 | 2.56865 | 333 ft | 19 kts | 265° |
| 2026-05-01 14:54 | 48.99921 | 2.56655 | 334 ft | 20 kts | 265° |
| 2026-05-01 14:54 | 48.99908 | 2.56435 | 333 ft | 20 kts | 265° |
| 2026-05-01 14:55 | 48.99898 | 2.56214 | 333 ft | 21 kts | 266° |
| 2026-05-01 14:55 | 48.99889 | 2.56010 | 334 ft | 16 kts | 274° |
| 2026-05-01 14:55 | 48.99893 | 2.55855 | 334 ft | 11 kts | 249° |
| 2026-05-01 14:55 | 48.99820 | 2.55806 | 333 ft | 11 kts | 187° |
| 2026-05-01 14:56 | 48.99742 | 2.55807 | 333 ft | 11 kts | 176° |
| 2026-05-01 14:56 | 48.99662 | 2.55818 | 333 ft | 11 kts | 174° |
| 2026-05-01 14:56 | 48.99608 | 2.55870 | 332 ft | 8 kts | 107° |
| 2026-05-01 14:56 | 48.99606 | 2.55915 | 332 ft | 0 kts | 88° |
| 2026-05-01 14:57 | 48.99606 | 2.55916 | 332 ft | 0 kts | 88° |
| 2026-05-01 14:57 | 48.99606 | 2.55920 | 332 ft | 0 kts | 86° |
| 2026-05-01 14:57 | 48.99606 | 2.55922 | 332 ft | 0 kts | 86° |
| 2026-05-01 14:58 | 48.99606 | 2.55930 | 332 ft | 0 kts | 86° |
| 2026-05-01 14:58 | 48.99607 | 2.55943 | 332 ft | 1 kts | 86° |
| 2026-05-01 14:58 | 48.99607 | 2.55949 | 332 ft | 0 kts | 87° |
| 2026-05-01 14:59 | 48.99607 | 2.55951 | 332 ft | 0 kts | 86° |
| 2026-05-01 14:59 | 48.99607 | 2.55952 | 332 ft | 0 kts | 86° |
| 2026-05-01 15:00 | 48.99614 | 2.56104 | 332 ft | 44 kts | 87° |
| 2026-05-01 15:00 | 48.99656 | 2.56943 | 331 ft | 111 kts | 85° |
| 2026-05-01 15:00 | 48.99735 | 2.58402 | 330 ft | 167 kts | 86° |
| 2026-05-01 15:01 | 48.99845 | 2.60336 | 616 ft | 189 kts | 88° |
| 2026-05-01 15:01 | 48.99955 | 2.62342 | 1287 ft | 191 kts | 88° |
| 2026-05-01 15:01 | 49.00057 | 2.64325 | 2018 ft | 190 kts | 88° |
| 2026-05-01 15:01 | 49.00160 | 2.66366 | 2513 ft | 197 kts | 88° |
| 2026-05-01 15:02 | 49.00270 | 2.68493 | 2767 ft | 208 kts | 88° |
| 2026-05-01 15:02 | 49.00307 | 2.69222 | 2853 ft | 212 kts | 88° |
| 2026-05-01 15:02 | 49.00510 | 2.73126 | 3290 ft | 234 kts | 87° |
| 2026-05-01 15:02 | 49.00640 | 2.75640 | 3601 ft | 248 kts | 87° |
| 2026-05-01 15:03 | 49.00747 | 2.78317 | 3912 ft | 261 kts | 91° |
| 2026-05-01 15:03 | 49.00660 | 2.81128 | 4376 ft | 268 kts | 98° |
| 2026-05-01 15:03 | 49.00366 | 2.83909 | 4989 ft | 270 kts | 102° |
| 2026-05-01 15:03 | 49.00006 | 2.86752 | 5620 ft | 272 kts | 103° |
| 2026-05-01 15:04 | 48.99642 | 2.89558 | 6148 ft | 275 kts | 103° |
| 2026-05-01 15:04 | 48.98982 | 2.92271 | 6612 ft | 276 kts | 129° |
| 2026-05-01 15:04 | 48.97687 | 2.93889 | 7153 ft | 271 kts | 159° |
| 2026-05-01 15:04 | 48.95861 | 2.94414 | 7703 ft | 270 kts | 184° |
| 2026-05-01 15:05 | 48.94044 | 2.93686 | 8231 ft | 274 kts | 207° |
| 2026-05-01 15:05 | 48.92377 | 2.92260 | 8792 ft | 280 kts | 209° |
| 2026-05-01 15:05 | 48.90665 | 2.90801 | 9348 ft | 285 kts | 209° |
| 2026-05-01 15:05 | 48.88915 | 2.89345 | 9874 ft | 290 kts | 208° |
| 2026-05-01 15:06 | 48.87133 | 2.87893 | 10005 ft | 291 kts | 208° |
| 2026-05-01 15:06 | 48.85370 | 2.86472 | 9998 ft | 290 kts | 208° |
| 2026-05-01 15:06 | 48.83584 | 2.85038 | 10033 ft | 292 kts | 208° |
| 2026-05-01 15:06 | 48.81762 | 2.83581 | 10322 ft | 300 kts | 208° |
| 2026-05-01 15:07 | 48.79903 | 2.82095 | 10522 ft | 313 kts | 207° |
| 2026-05-01 15:07 | 48.77936 | 2.80521 | 10773 ft | 323 kts | 207° |
| 2026-05-01 15:07 | 48.75948 | 2.78934 | 11222 ft | 325 kts | 206° |
| 2026-05-01 15:07 | 48.73940 | 2.77332 | 11771 ft | 324 kts | 206° |
| 2026-05-01 15:08 | 48.71980 | 2.75773 | 12384 ft | 324 kts | 205° |
| 2026-05-01 15:08 | 48.69980 | 2.74188 | 12957 ft | 325 kts | 205° |
| 2026-05-01 15:08 | 48.67976 | 2.72605 | 13494 ft | 328 kts | 205° |
| 2026-05-01 15:08 | 48.65953 | 2.71005 | 14018 ft | 330 kts | 205° |
| 2026-05-01 15:09 | 48.63919 | 2.69398 | 14531 ft | 332 kts | 205° |
| 2026-05-01 15:09 | 48.61853 | 2.67768 | 15055 ft | 334 kts | 205° |
| 2026-05-01 15:09 | 48.59808 | 2.66153 | 15552 ft | 336 kts | 205° |
| 2026-05-01 15:09 | 48.57746 | 2.64532 | 16051 ft | 338 kts | 205° |
| 2026-05-01 15:10 | 48.55639 | 2.62867 | 16562 ft | 339 kts | 205° |
| 2026-05-01 15:10 | 48.51456 | 2.59562 | 17446 ft | 345 kts | 205° |
| 2026-05-01 15:10 | 48.49320 | 2.57873 | 17921 ft | 347 kts | 204° |
| 2026-05-01 15:11 | 48.47167 | 2.56205 | 18378 ft | 350 kts | 205° |
| 2026-05-01 15:11 | 48.42852 | 2.52784 | 19302 ft | 353 kts | 204° |
| 2026-05-01 15:11 | 48.40692 | 2.51086 | 19706 ft | 355 kts | 203° |
| 2026-05-01 15:12 | 48.38497 | 2.49374 | 20149 ft | 356 kts | 203° |
| 2026-05-01 15:12 | 48.34075 | 2.45949 | 20914 ft | 362 kts | 204° |
| 2026-05-01 15:12 | 48.31834 | 2.44210 | 21366 ft | 363 kts | 204° |
| 2026-05-01 15:13 | 48.25056 | 2.38942 | 22502 ft | 369 kts | 204° |
| 2026-05-01 15:14 | 48.20509 | 2.35417 | 23248 ft | 373 kts | 205° |
| 2026-05-01 15:14 | 48.18204 | 2.33624 | 23618 ft | 375 kts | 204° |
| 2026-05-01 15:14 | 48.13318 | 2.31159 | 24057 ft | 377 kts | 175° |
| 2026-05-01 15:15 | 48.08157 | 2.32005 | 24417 ft | 388 kts | 173° |
| 2026-05-01 15:15 | 48.02687 | 2.32813 | 24704 ft | 401 kts | 173° |
| 2026-05-01 15:16 | 47.97086 | 2.33580 | 24999 ft | 412 kts | 174° |
| 2026-05-01 15:16 | 47.91339 | 2.34340 | 25490 ft | 417 kts | 174° |
| 2026-05-01 15:17 | 47.85545 | 2.35092 | 26008 ft | 421 kts | 174° |
| 2026-05-01 15:18 | 47.76749 | 2.36221 | 26786 ft | 425 kts | 174° |
| 2026-05-01 15:18 | 47.73769 | 2.36608 | 27025 ft | 427 kts | 174° |
| 2026-05-01 15:19 | 47.64886 | 2.37752 | 27668 ft | 432 kts | 175° |
| 2026-05-01 15:19 | 47.58886 | 2.38518 | 28106 ft | 434 kts | 175° |
| 2026-05-01 15:19 | 47.55891 | 2.38901 | 28285 ft | 436 kts | 175° |
| 2026-05-01 15:20 | 47.49832 | 2.39676 | 28631 ft | 439 kts | 176° |
| 2026-05-01 15:20 | 47.46762 | 2.40069 | 28783 ft | 441 kts | 176° |
| 2026-05-01 15:20 | 47.43700 | 2.40456 | 28956 ft | 443 kts | 176° |
| 2026-05-01 15:21 | 47.40645 | 2.40846 | 29107 ft | 445 kts | 177° |
| 2026-05-01 15:21 | 47.34460 | 2.41633 | 29290 ft | 451 kts | 177° |
| 2026-05-01 15:21 | 47.31301 | 2.42029 | 29432 ft | 452 kts | 177° |
| 2026-05-01 15:22 | 47.25016 | 2.42827 | 29653 ft | 457 kts | 178° |
| 2026-05-01 15:22 | 47.21874 | 2.43220 | 29783 ft | 459 kts | 178° |
| 2026-05-01 15:22 | 47.18668 | 2.43626 | 29960 ft | 459 kts | 178° |
| 2026-05-01 15:23 | 47.15504 | 2.44023 | 30076 ft | 462 kts | 178° |
| 2026-05-01 15:23 | 47.12309 | 2.44425 | 30175 ft | 464 kts | 178° |
| 2026-05-01 15:23 | 47.09083 | 2.44828 | 30320 ft | 465 kts | 178° |
| 2026-05-01 15:23 | 47.05865 | 2.45230 | 30508 ft | 465 kts | 178° |
| 2026-05-01 15:24 | 47.02638 | 2.45634 | 30675 ft | 465 kts | 178° |
| 2026-05-01 15:24 | 46.99421 | 2.46037 | 30822 ft | 466 kts | 178° |
| 2026-05-01 15:24 | 46.96224 | 2.46436 | 30991 ft | 466 kts | 178° |
| 2026-05-01 15:24 | 46.92991 | 2.46841 | 31200 ft | 465 kts | 178° |
| 2026-05-01 15:25 | 46.89779 | 2.47242 | 31411 ft | 464 kts | 178° |
| 2026-05-01 15:25 | 46.86542 | 2.47645 | 31622 ft | 463 kts | 178° |
| 2026-05-01 15:25 | 46.83331 | 2.48045 | 31816 ft | 462 kts | 178° |
| 2026-05-01 15:25 | 46.80166 | 2.48438 | 31989 ft | 462 kts | 178° |
| 2026-05-01 15:26 | 46.76979 | 2.48834 | 32170 ft | 461 kts | 178° |
| 2026-05-01 15:26 | 46.73770 | 2.49232 | 32371 ft | 460 kts | 178° |
| 2026-05-01 15:26 | 46.70600 | 2.49624 | 32587 ft | 459 kts | 178° |
| 2026-05-01 15:26 | 46.67399 | 2.50020 | 32794 ft | 458 kts | 178° |
| 2026-05-01 15:27 | 46.64227 | 2.50413 | 32973 ft | 457 kts | 178° |
| 2026-05-01 15:27 | 46.61083 | 2.50800 | 33137 ft | 456 kts | 178° |
| 2026-05-01 15:27 | 46.57954 | 2.51185 | 33297 ft | 456 kts | 178° |
| 2026-05-01 15:28 | 46.51614 | 2.51966 | 33517 ft | 456 kts | 178° |
| 2026-05-01 15:28 | 46.48432 | 2.52357 | 33620 ft | 457 kts | 178° |
| 2026-05-01 15:28 | 46.45258 | 2.52747 | 33721 ft | 457 kts | 178° |
| 2026-05-01 15:29 | 46.38936 | 2.53521 | 33924 ft | 458 kts | 177° |
| 2026-05-01 15:29 | 46.35764 | 2.53909 | 34041 ft | 458 kts | 177° |
| 2026-05-01 15:29 | 46.29444 | 2.54682 | 34260 ft | 457 kts | 177° |
| 2026-05-01 15:30 | 46.23111 | 2.55453 | 34464 ft | 457 kts | 177° |
| 2026-05-01 15:31 | 46.10392 | 2.56999 | 34751 ft | 458 kts | 177° |
| 2026-05-01 15:31 | 46.04039 | 2.57768 | 34898 ft | 457 kts | 177° |
| 2026-05-01 15:32 | 45.91312 | 2.59300 | 35106 ft | 460 kts | 177° |
| 2026-05-01 15:33 | 45.81720 | 2.60449 | 35225 ft | 460 kts | 176° |
| 2026-05-01 15:34 | 45.72163 | 2.61593 | 35227 ft | 460 kts | 177° |